createdAt,value
2022-10-11T00:00:08.852Z,98652.34
2022-10-11T00:02:35.835Z,98654.06
2022-10-11T00:05:02.818Z,98654.75
2022-10-11T00:07:30.151Z,98651.19
2022-10-11T00:09:57.171Z,98647.28
2022-10-11T00:12:24.143Z,98650.00
2022-10-11T00:14:51.275Z,98660.19
2022-10-11T00:17:18.272Z,98654.91
2022-10-11T00:19:45.173Z,98654.66
2022-10-11T00:22:12.259Z,98659.56
2022-10-11T00:24:39.180Z,98667.31
2022-10-11T00:27:06.198Z,98656.91
2022-10-11T00:29:33.123Z,98659.25
2022-10-11T00:32:00.572Z,98653.72
2022-10-11T00:34:27.565Z,98655.66
2022-10-11T00:36:54.702Z,98657.81
2022-10-11T00:39:22.475Z,98667.06
2022-10-11T00:41:49.860Z,98664.84
2022-10-11T00:44:20.161Z,98665.97
2022-10-11T00:47:05.410Z,98667.59
2022-10-11T00:49:44.060Z,98669.19
2022-10-11T00:52:23.336Z,98670.22
2022-10-11T00:54:51.093Z,98656.69
2022-10-11T00:57:23.928Z,98657.13
2022-10-11T00:59:54.091Z,98652.72
2022-10-11T01:02:23.317Z,98657.31
2022-10-11T01:05:01.185Z,98661.34
2022-10-11T01:07:39.279Z,98654.19
2022-10-11T01:10:06.543Z,98644.38
2022-10-11T01:12:33.928Z,98653.19
2022-10-11T01:15:19.143Z,98653.50
2022-10-11T01:18:30.456Z,98662.25
2022-10-11T01:21:25.148Z,98653.38
2022-10-11T01:23:55.116Z,98650.22
2022-10-11T01:26:59.515Z,98644.38
2022-10-11T01:29:48.065Z,98640.34
2022-10-11T01:32:17.492Z,98653.63
2022-10-11T01:34:57.697Z,98653.28
2022-10-11T01:37:31.791Z,98654.88
2022-10-11T01:40:40.250Z,98645.00
2022-10-11T01:43:07.436Z,98652.16
2022-10-11T01:45:35.433Z,98649.16
2022-10-11T01:48:14.231Z,98644.56
2022-10-11T01:50:57.029Z,98643.00
2022-10-11T01:54:08.171Z,98640.75
2022-10-11T01:57:28.936Z,98635.91
2022-10-11T01:59:56.024Z,98642.78
2022-10-11T02:02:32.348Z,98646.09
2022-10-11T02:05:47.430Z,98646.41
2022-10-11T02:30:17.850Z,98622.19
2022-10-11T02:32:47.248Z,98628.03
2022-10-11T02:35:15.323Z,98635.03
2022-10-11T02:38:05.861Z,98636.56
2022-10-11T02:40:37.672Z,98630.44
2022-10-11T02:43:19.834Z,98635.72
2022-10-11T02:45:52.661Z,98634.84
2022-10-11T02:48:20.320Z,98634.28
2022-10-11T02:50:47.614Z,98625.44
2022-10-11T02:53:14.718Z,98627.19
2022-10-11T02:55:41.963Z,98622.75
2022-10-11T02:58:09.414Z,98625.59
2022-10-11T03:00:36.269Z,98630.31
2022-10-11T03:03:03.743Z,98625.38
2022-10-11T03:05:30.702Z,98627.75
2022-10-11T03:07:58.001Z,98625.22
2022-10-11T03:10:24.877Z,98620.34
2022-10-11T03:12:51.793Z,98633.59
2022-10-11T03:15:18.777Z,98640.59
2022-10-11T03:17:45.670Z,98626.88
2022-10-11T03:20:12.632Z,98637.41
2022-10-11T03:22:39.518Z,98618.75
2022-10-11T03:25:06.688Z,98624.53
2022-10-11T03:27:34.140Z,98618.13
2022-10-11T03:30:01.696Z,98616.41
2022-10-11T03:32:29.530Z,98625.84
2022-10-11T03:34:56.610Z,98633.09
2022-10-11T03:37:23.708Z,98623.25
2022-10-11T03:39:50.782Z,98623.97
2022-10-11T03:42:17.688Z,98614.97
2022-10-11T03:44:44.619Z,98627.25
2022-10-11T03:47:12.862Z,98625.72
2022-10-11T03:49:43.390Z,98623.00
2022-10-11T03:52:11.691Z,98622.84
2022-10-11T03:54:38.689Z,98617.97
2022-10-11T03:57:05.685Z,98623.13
2022-10-11T03:59:32.613Z,98624.81
2022-10-11T04:01:59.581Z,98624.81
2022-10-11T04:04:26.730Z,98625.34
2022-10-11T04:06:53.680Z,98617.50
2022-10-11T04:09:20.769Z,98625.56
2022-10-11T04:11:47.982Z,98622.31
2022-10-11T04:14:15.201Z,98626.78
2022-10-11T04:16:42.364Z,98618.22
2022-10-11T04:19:09.533Z,98614.81
2022-10-11T04:21:36.391Z,98612.69
2022-10-11T04:24:04.392Z,98611.28
2022-10-11T04:26:31.470Z,98612.13
2022-10-11T04:29:00.210Z,98607.56
2022-10-11T04:31:27.304Z,98603.00
2022-10-11T04:33:54.499Z,98609.97
2022-10-11T04:36:21.365Z,98611.53
2022-10-11T04:38:48.760Z,98611.25
2022-10-11T04:41:16.660Z,98601.78
2022-10-11T04:43:43.558Z,98604.06
2022-10-11T04:46:11.686Z,98603.03
2022-10-11T04:48:38.798Z,98615.47
2022-10-11T04:51:06.070Z,98618.88
2022-10-11T04:53:32.974Z,98609.19
2022-10-11T04:56:02.685Z,98614.59
2022-10-11T04:58:31.463Z,98617.63
2022-10-11T05:00:58.807Z,98606.38
2022-10-11T05:03:26.146Z,98615.06
2022-10-11T05:05:54.236Z,98617.94
2022-10-11T05:08:23.371Z,98615.22
2022-10-11T05:11:00.717Z,98624.91
2022-10-11T05:13:29.163Z,98621.19
2022-10-11T05:15:56.309Z,98628.31
2022-10-11T05:18:24.076Z,98623.06
2022-10-11T05:21:19.263Z,98624.00
2022-10-11T05:24:20.444Z,98625.44
2022-10-11T05:26:48.138Z,98623.13
2022-10-11T05:29:15.044Z,98621.94
2022-10-11T05:31:42.391Z,98625.22
2022-10-11T05:34:09.250Z,98627.47
2022-10-11T05:36:36.595Z,98630.91
2022-10-11T05:39:04.058Z,98634.16
2022-10-11T05:41:31.575Z,98637.97
2022-10-11T05:43:58.482Z,98635.66
2022-10-11T05:46:25.659Z,98635.34
2022-10-11T05:48:52.498Z,98640.50
2022-10-11T05:51:19.426Z,98643.75
2022-10-11T05:53:46.392Z,98645.50
2022-10-11T05:56:25.490Z,98645.00
2022-10-11T05:58:53.290Z,98642.16
2022-10-11T06:01:25.731Z,98640.84
2022-10-11T06:03:53.173Z,98647.28
2022-10-11T06:06:20.592Z,98639.97
2022-10-11T06:08:48.997Z,98649.38
2022-10-11T06:11:21.936Z,98649.38
2022-10-11T06:13:49.483Z,98650.94
2022-10-11T06:16:16.457Z,98659.63
2022-10-11T06:18:43.610Z,98665.06
2022-10-11T06:21:10.912Z,98664.78
2022-10-11T06:23:38.429Z,98667.16
2022-10-11T06:26:08.469Z,98663.28
2022-10-11T06:28:36.864Z,98670.28
2022-10-11T06:31:05.717Z,98669.97
2022-10-11T06:33:33.819Z,98675.09
2022-10-11T06:36:03.834Z,98672.59
2022-10-11T06:38:31.250Z,98679.13
2022-10-11T06:40:58.175Z,98684.78
2022-10-11T06:43:25.723Z,98681.78
2022-10-11T06:45:53.010Z,98683.50
2022-10-11T06:48:19.946Z,98681.31
2022-10-11T06:50:59.501Z,98688.44
2022-10-11T06:53:27.984Z,98693.72
2022-10-11T06:56:01.554Z,98695.13
2022-10-11T06:58:29.317Z,98692.94
2022-10-11T07:01:00.489Z,98692.47
2022-10-11T07:03:28.650Z,98695.59
2022-10-11T07:06:13.071Z,98698.88
2022-10-11T07:08:41.602Z,98695.44
2022-10-11T07:11:13.645Z,98703.16
2022-10-11T07:13:42.143Z,98700.81
2022-10-11T07:16:11.310Z,98701.06
2022-10-11T07:18:39.640Z,98690.50
2022-10-11T07:21:09.338Z,98700.28
2022-10-11T07:23:38.085Z,98703.91
2022-10-11T07:26:05.881Z,98700.38
2022-10-11T07:28:35.970Z,98701.44
2022-10-11T07:31:12.028Z,98703.88
2022-10-11T07:33:39.326Z,98701.50
2022-10-11T07:36:07.116Z,98695.38
2022-10-11T07:38:34.788Z,98692.88
2022-10-11T07:41:05.773Z,98696.16
2022-10-11T07:43:32.849Z,98699.41
2022-10-11T07:46:04.876Z,98700.09
2022-10-11T07:48:33.828Z,98701.47
2022-10-11T07:51:12.387Z,98702.53
2022-10-11T07:53:43.716Z,98696.03
2022-10-11T07:56:13.070Z,98695.22
2022-10-11T07:58:41.349Z,98699.16
2022-10-11T08:01:09.778Z,98714.81
2022-10-11T08:03:37.631Z,98702.41
2022-10-11T08:06:08.465Z,98706.66
2022-10-11T08:08:36.891Z,98700.56
2022-10-11T08:11:04.605Z,98707.88
2022-10-11T08:13:32.145Z,98706.00
2022-10-11T08:15:59.394Z,98700.91
2022-10-11T08:18:26.256Z,98705.19
2022-10-11T08:20:53.701Z,98708.94
2022-10-11T08:23:20.568Z,98694.75
2022-10-11T08:25:48.296Z,98708.59
2022-10-11T08:28:18.138Z,98707.06
2022-10-11T08:30:50.104Z,98705.72
2022-10-11T08:33:18.984Z,98702.47
2022-10-11T08:35:45.859Z,98693.44
2022-10-11T08:38:13.058Z,98705.03
2022-10-11T08:40:47.749Z,98699.75
2022-10-11T08:43:28.339Z,98699.22
2022-10-11T08:45:58.997Z,98693.44
2022-10-11T08:48:34.560Z,98705.03
2022-10-11T08:51:06.743Z,98709.13
2022-10-11T08:53:49.270Z,98697.88
2022-10-11T08:56:18.023Z,98696.50
2022-10-11T08:58:56.005Z,98699.91
2022-10-11T09:01:27.039Z,98696.34
2022-10-11T09:03:55.455Z,98694.13
2022-10-11T09:07:04.736Z,98689.69
2022-10-11T09:09:49.055Z,98706.91
2022-10-11T09:12:16.125Z,98697.88
2022-10-11T09:15:00.828Z,98688.66
2022-10-11T09:17:55.821Z,98695.66
2022-10-11T09:20:44.898Z,98688.81
2022-10-11T09:23:44.172Z,98693.06
2022-10-11T09:26:51.862Z,98694.09
2022-10-11T09:29:33.439Z,98687.59
2022-10-11T09:32:01.113Z,98697.97
2022-10-11T09:34:34.065Z,98691.63
2022-10-11T09:37:07.544Z,98685.47
2022-10-11T09:39:42.223Z,98679.31
2022-10-11T09:42:11.012Z,98683.38
2022-10-11T09:44:40.063Z,98687.28
2022-10-11T09:47:12.565Z,98694.13
2022-10-11T09:49:46.522Z,98694.38
2022-10-11T09:52:20.044Z,98697.31
2022-10-11T09:54:50.368Z,98691.66
2022-10-11T09:57:27.030Z,98681.59
2022-10-11T10:00:21.538Z,98680.56
2022-10-11T10:02:53.162Z,98676.84
2022-10-11T10:05:39.683Z,98673.69
2022-10-11T10:08:22.692Z,98680.22
2022-10-11T10:11:06.763Z,98670.00
2022-10-11T10:13:42.531Z,98675.81
2022-10-11T10:16:24.791Z,98672.25
2022-10-11T10:18:57.512Z,98668.50
2022-10-11T10:21:46.703Z,98667.81
2022-10-11T10:24:27.955Z,98668.53
2022-10-11T10:27:21.207Z,98670.09
2022-10-11T10:30:08.524Z,98662.75
2022-10-11T10:32:35.491Z,98666.84
2022-10-11T10:35:30.306Z,98669.22
2022-10-11T10:38:22.797Z,98672.97
2022-10-11T10:40:58.997Z,98666.47
2022-10-11T10:43:29.259Z,98660.69
2022-10-11T10:46:21.852Z,98660.00
2022-10-11T10:51:57.949Z,98658.97
2022-10-11T10:54:59.064Z,98658.47
2022-10-11T10:57:36.107Z,98655.88
2022-10-11T11:02:55.525Z,98658.47
2022-10-11T11:06:01.474Z,98652.31
2022-10-11T11:08:47.679Z,98650.94
2022-10-11T11:11:20.858Z,98653.16
2022-10-11T11:14:16.634Z,98642.94
2022-10-11T11:17:13.319Z,98647.72
2022-10-11T11:20:02.243Z,98640.22
2022-10-11T11:22:40.107Z,98641.03
2022-10-11T11:25:48.533Z,98633.38
2022-10-11T11:28:18.782Z,98624.34
2022-10-11T11:30:54.640Z,98631.34
2022-10-11T11:33:36.932Z,98631.84
2022-10-11T11:36:12.464Z,98629.31
2022-10-11T11:38:50.809Z,98617.38
2022-10-11T11:41:34.584Z,98624.38
2022-10-11T11:44:04.006Z,98620.44
2022-10-11T11:46:47.390Z,98626.41
2022-10-11T11:49:24.640Z,98631.19
2022-10-11T11:51:52.393Z,98623.16
2022-10-11T11:54:45.271Z,98630.81
2022-10-11T11:57:26.750Z,98620.13
2022-10-11T11:59:57.653Z,98628.47
2022-10-11T12:02:45.294Z,98619.91
2022-10-11T12:05:15.425Z,98621.97
2022-10-11T12:08:00.289Z,98626.41
2022-10-11T12:10:36.060Z,98621.63
2022-10-11T12:13:22.911Z,98620.78
2022-10-11T12:16:00.227Z,98618.75
2022-10-11T12:18:29.393Z,98611.41
2022-10-11T12:21:15.374Z,98612.75
2022-10-11T12:23:46.240Z,98612.06
2022-10-11T12:26:28.744Z,98606.28
2022-10-11T12:29:24.657Z,98601.69
2022-10-11T12:32:01.427Z,98602.34
2022-10-11T12:34:38.178Z,98605.63
2022-10-11T12:37:20.571Z,98604.25
2022-10-11T12:39:52.977Z,98609.53
2022-10-11T12:42:32.486Z,98604.41
2022-10-11T12:45:14.771Z,98600.31
2022-10-11T12:48:03.804Z,98604.56
2022-10-11T12:50:37.330Z,98600.66
2022-10-11T12:54:14.308Z,98604.75
2022-10-11T12:56:44.480Z,98601.16
2022-10-11T12:59:23.689Z,98599.44
2022-10-11T13:01:59.310Z,98599.78
2022-10-11T13:04:30.363Z,98598.41
2022-10-11T13:07:06.947Z,98601.31
2022-10-11T13:09:36.106Z,98607.16
2022-10-11T13:12:02.927Z,98606.78
2022-10-11T13:14:36.858Z,98604.56
2022-10-11T13:17:06.734Z,98614.63
2022-10-11T13:19:37.270Z,98601.66
2022-10-11T13:22:15.451Z,98605.44
2022-10-11T13:24:42.763Z,98607.09
2022-10-11T13:27:23.367Z,98607.47
2022-10-11T13:29:53.079Z,98607.47
2022-10-11T13:32:26.934Z,98603.88
2022-10-11T13:35:01.660Z,98607.31
2022-10-11T13:37:30.973Z,98600.81
2022-10-11T13:39:58.411Z,98598.97
2022-10-11T13:42:32.501Z,98603.91
2022-10-11T13:45:00.864Z,98615.66
2022-10-11T13:47:30.385Z,98603.41
2022-10-11T13:50:16.723Z,98609.69
2022-10-11T13:52:58.027Z,98605.78
2022-10-11T13:55:34.463Z,98606.78
2022-10-11T13:58:09.076Z,98607.16
2022-10-11T14:00:40.529Z,98605.94
2022-10-11T14:03:19.780Z,98603.56
2022-10-11T14:06:00.628Z,98596.38
2022-10-11T14:08:36.617Z,98599.28
2022-10-11T14:11:06.506Z,98596.56
2022-10-11T14:13:37.170Z,98591.09
2022-10-11T14:16:13.882Z,98592.50
2022-10-11T14:18:43.750Z,98597.94
2022-10-11T14:21:20.044Z,98591.78
2022-10-11T14:23:50.339Z,98590.09
2022-10-11T14:26:19.069Z,98587.38
2022-10-11T14:28:52.423Z,98591.44
2022-10-11T14:31:19.715Z,98594.88
2022-10-11T14:33:46.615Z,98586.69
2022-10-11T14:36:14.395Z,98591.81
2022-10-11T14:38:41.291Z,98594.69
2022-10-11T14:41:08.391Z,98597.25
2022-10-11T14:43:35.638Z,98602.72
2022-10-11T14:46:03.173Z,98599.63
2022-10-11T14:48:53.745Z,98602.19
2022-10-11T14:51:25.574Z,98615.22
2022-10-11T14:53:52.773Z,98618.06
2022-10-11T14:56:21.723Z,98614.13
2022-10-11T14:58:49.389Z,98612.03
2022-10-11T15:01:17.346Z,98622.56
2022-10-11T15:03:44.987Z,98616.06
2022-10-11T15:06:21.354Z,98627.22
2022-10-11T15:08:49.055Z,98623.56
2022-10-11T15:11:18.363Z,98623.13
2022-10-11T15:13:46.703Z,98632.88
2022-10-11T15:16:15.933Z,98632.66
2022-10-11T15:18:44.139Z,98626.81
2022-10-11T15:21:14.908Z,98628.31
2022-10-11T15:23:42.220Z,98635.25
2022-10-11T15:26:14.076Z,98641.25
2022-10-11T15:28:42.052Z,98632.31
2022-10-11T15:31:10.830Z,98645.22
2022-10-11T15:33:39.569Z,98636.38
2022-10-11T15:36:09.591Z,98641.94
2022-10-11T15:38:38.843Z,98638.34
2022-10-11T15:41:05.736Z,98634.09
2022-10-11T15:43:34.134Z,98639.00
2022-10-11T15:46:02.477Z,98643.03
2022-10-11T15:48:29.903Z,98635.19
2022-10-11T15:50:56.954Z,98640.63
2022-10-11T15:53:31.115Z,98644.56
2022-10-11T15:56:02.356Z,98642.69
2022-10-11T15:58:32.547Z,98651.25
2022-10-11T16:01:02.259Z,98643.50
2022-10-11T16:03:30.555Z,98650.16
2022-10-11T16:06:03.866Z,98656.81
2022-10-11T16:08:33.546Z,98656.75
2022-10-11T16:11:00.864Z,98656.13
2022-10-11T16:13:28.461Z,98657.84
2022-10-11T16:15:56.154Z,98662.97
2022-10-11T16:18:23.845Z,98657.69
2022-10-11T16:20:52.510Z,98664.66
2022-10-11T16:23:22.253Z,98662.09
2022-10-11T16:26:00.601Z,98664.13
2022-10-11T16:28:28.615Z,98664.63
2022-10-11T16:30:56.025Z,98665.06
2022-10-11T16:33:23.232Z,98675.94
2022-10-11T16:35:50.306Z,98677.81
2022-10-11T16:38:17.684Z,98680.53
2022-10-11T16:40:44.751Z,98675.94
2022-10-11T16:43:11.747Z,98676.78
2022-10-11T16:45:38.816Z,98678.34
2022-10-11T16:48:06.055Z,98677.50
2022-10-11T16:50:39.110Z,98678.81
2022-10-11T16:53:06.794Z,98683.41
2022-10-11T16:55:33.761Z,98692.56
2022-10-11T16:58:01.151Z,98688.69
2022-10-11T17:00:28.068Z,98676.47
2022-10-11T17:02:55.358Z,98677.34
2022-10-11T17:05:22.433Z,98678.50
2022-10-11T17:07:49.587Z,98683.25
2022-10-11T17:10:16.541Z,98682.88
2022-10-11T17:12:47.817Z,98689.63
2022-10-11T17:15:17.356Z,98703.75
2022-10-11T17:17:44.220Z,98692.75
2022-10-11T17:20:11.808Z,98694.47
2022-10-11T17:22:38.663Z,98688.97
2022-10-11T17:25:07.086Z,98686.19
2022-10-11T17:27:34.349Z,98686.13
2022-10-11T17:30:01.472Z,98681.84
2022-10-11T17:32:28.332Z,98687.59
2022-10-11T17:34:57.772Z,98683.31
2022-10-11T17:37:24.721Z,98691.09
2022-10-11T17:39:51.916Z,98695.28
2022-10-11T17:42:19.186Z,98696.59
2022-10-11T17:44:46.376Z,98699.31
2022-10-11T17:47:14.416Z,98700.50
2022-10-11T17:49:41.797Z,98695.50
2022-10-11T17:52:09.086Z,98700.50
2022-10-11T17:54:36.892Z,98698.94
2022-10-11T17:57:04.063Z,98697.38
2022-10-11T17:59:32.399Z,98704.66
2022-10-11T18:01:59.358Z,98704.84
2022-10-11T18:04:30.008Z,98713.00
2022-10-11T18:06:57.511Z,98704.13
2022-10-11T18:09:24.836Z,98715.88
2022-10-11T18:11:52.622Z,98701.59
2022-10-11T18:14:20.082Z,98699.31
2022-10-11T18:16:47.359Z,98696.75
2022-10-11T18:19:15.154Z,98698.78
2022-10-11T18:21:42.426Z,98698.78
2022-10-11T18:24:15.152Z,98700.31
2022-10-11T18:26:46.518Z,98700.16
2022-10-11T18:29:15.795Z,98697.28
2022-10-11T18:31:43.047Z,98693.03
2022-10-11T18:34:13.517Z,98693.03
2022-10-11T18:36:40.813Z,98688.91
2022-10-11T18:39:11.071Z,98691.47
2022-10-11T18:41:40.419Z,98689.78
2022-10-11T18:44:09.150Z,98692.50
2022-10-11T18:46:36.854Z,98699.38
2022-10-11T18:49:04.314Z,98700.53
2022-10-11T18:51:39.974Z,98704.09
2022-10-11T18:54:08.569Z,98711.09
2022-10-11T18:56:37.108Z,98709.94
2022-10-11T18:59:06.048Z,98714.78
2022-10-11T19:01:38.722Z,98714.06
2022-10-11T19:04:08.548Z,98704.91
2022-10-11T19:06:43.145Z,98706.63
2022-10-11T19:09:22.775Z,98700.16
2022-10-11T19:11:52.439Z,98712.50
2022-10-11T19:14:22.178Z,98710.63
2022-10-11T19:16:51.821Z,98709.50
2022-10-11T19:19:20.820Z,98712.75
2022-10-11T19:21:49.497Z,98716.16
2022-10-11T19:24:18.225Z,98719.44
2022-10-11T19:26:45.438Z,98720.97
2022-10-11T19:29:15.815Z,98711.13
2022-10-11T19:31:45.550Z,98712.66
2022-10-11T19:34:12.749Z,98717.09
2022-10-11T19:36:42.933Z,98712.53
2022-10-11T19:39:15.111Z,98709.50
2022-10-11T19:41:44.672Z,98712.38
2022-10-11T19:44:15.191Z,98709.66
2022-10-11T19:47:02.805Z,98719.53
2022-10-11T19:49:29.543Z,98716.09
2022-10-11T19:51:56.552Z,98721.38
2022-10-11T19:54:24.264Z,98717.81
2022-10-11T19:56:51.559Z,98727.50
2022-10-11T19:59:18.784Z,98721.06
2022-10-11T20:01:51.291Z,98726.22
2022-10-11T20:04:47.028Z,98720.91
2022-10-11T20:07:06.451Z,98725.50
2022-10-11T20:09:33.381Z,98726.91
2022-10-11T20:12:00.355Z,98727.59
2022-10-11T20:14:27.356Z,98726.75
2022-10-11T20:16:54.419Z,98726.34
2022-10-11T20:19:25.032Z,98731.53
2022-10-11T20:21:55.051Z,98732.19
2022-10-11T20:24:22.178Z,98727.66
2022-10-11T20:26:49.079Z,98725.38
2022-10-11T20:29:16.054Z,98735.56
2022-10-11T20:31:43.139Z,98733.00
2022-10-11T20:34:11.007Z,98736.84
2022-10-11T20:36:38.310Z,98728.16
2022-10-11T20:39:08.311Z,98730.28
2022-10-11T20:41:40.136Z,98739.94
2022-10-11T20:44:09.161Z,98742.16
2022-10-11T20:46:38.820Z,98740.72
2022-10-11T20:49:11.687Z,98743.50
2022-10-11T20:51:41.652Z,98740.09
2022-10-11T20:54:08.992Z,98742.41
2022-10-11T20:56:36.480Z,98739.63
2022-10-11T20:59:05.145Z,98749.06
2022-10-11T21:01:38.234Z,98741.25
2022-10-11T21:04:07.166Z,98736.41
2022-10-11T21:06:34.745Z,98737.72
2022-10-11T21:09:02.382Z,98742.47
2022-10-11T21:11:32.040Z,98729.88
2022-10-11T21:14:02.221Z,98737.03
2022-10-11T21:16:30.070Z,98741.59
2022-10-11T21:18:58.703Z,98736.00
2022-10-11T21:21:27.309Z,98737.88
2022-10-11T21:23:59.346Z,98739.75
2022-10-11T21:26:27.866Z,98732.59
2022-10-11T21:28:56.795Z,98736.91
2022-10-11T21:31:24.021Z,98732.09
2022-10-11T21:33:51.499Z,98737.69
2022-10-11T21:36:21.116Z,98734.41
2022-10-11T21:38:49.733Z,98731.16
2022-10-11T21:41:22.267Z,98734.16
2022-10-11T21:43:50.046Z,98731.19
2022-10-11T21:46:42.019Z,98730.44
2022-10-11T21:49:14.715Z,98729.28
2022-10-11T21:51:42.581Z,98730.72
2022-10-11T21:54:12.327Z,98729.97
2022-10-11T21:56:40.674Z,98723.22
2022-10-11T21:59:12.228Z,98727.53
2022-10-11T22:01:42.374Z,98726.34
2022-10-11T22:04:11.597Z,98722.63
2022-10-11T22:06:39.633Z,98715.47
2022-10-11T22:09:09.820Z,98715.47
2022-10-11T22:11:38.663Z,98725.50
2022-10-11T22:14:06.899Z,98713.78
2022-10-11T22:18:19.743Z,98716.38
2022-10-11T22:20:47.130Z,98712.91
2022-10-11T22:23:57.219Z,98719.22
2022-10-11T22:26:27.406Z,98713.78
2022-10-11T22:28:54.426Z,98722.63
2022-10-11T22:31:22.822Z,98713.53
2022-10-11T22:33:54.856Z,98718.28
2022-10-11T22:36:24.271Z,98713.34
2022-10-11T22:38:54.694Z,98732.25
2022-10-11T22:41:22.061Z,98723.00
2022-10-11T22:43:49.242Z,98733.09
2022-10-11T22:46:16.690Z,98728.00
2022-10-11T22:48:43.853Z,98724.72
2022-10-11T22:51:11.051Z,98724.88
2022-10-11T22:53:38.728Z,98725.00
2022-10-11T22:56:07.418Z,98732.31
2022-10-11T22:58:34.425Z,98735.25
2022-10-11T23:01:13.988Z,98740.69
2022-10-11T23:03:41.287Z,98744.78
2022-10-11T23:06:08.794Z,98748.78
2022-10-11T23:08:36.125Z,98737.63
2022-10-11T23:11:05.305Z,98739.91
2022-10-11T23:13:32.809Z,98743.31
2022-10-11T23:16:00.426Z,98745.00
2022-10-11T23:18:27.415Z,98742.72
2022-10-11T23:20:54.490Z,98740.88
2022-10-11T23:23:21.628Z,98738.72
2022-10-11T23:25:48.824Z,98751.25
2022-10-11T23:28:15.815Z,98740.41
2022-10-11T23:30:43.348Z,98741.25
2022-10-11T23:33:10.194Z,98742.28
2022-10-11T23:35:37.382Z,98746.84
2022-10-11T23:38:04.619Z,98745.84
2022-10-11T23:40:31.765Z,98742.41
2022-10-11T23:42:58.960Z,98745.84
2022-10-11T23:45:26.286Z,98740.69
2022-10-11T23:47:53.431Z,98745.19
2022-10-11T23:50:20.330Z,98746.75
2022-10-11T23:52:47.967Z,98751.88
2022-10-11T23:55:15.020Z,98741.31
2022-10-11T23:57:42.356Z,98746.44
